Terminal Aerodrome Forecast
Issued by NWS

Home | Current Version | Previous Version | Text Only | Print | Product List | Glossary On
Versions: 1 2 3 4 5 6 7 8 9 10 11 12 13 14 15 16 17 18 19 20 21 22 23 24 25 26 27 28 29
000
FTUS45 KGJT 211124
TAFASE
TAF
KASE 211124Z 2112/2212 15010G18KT P6SM BKN090
     FM211400 14009KT P6SM VCSH SCT040 BKN070
      TEMPO 2114/2118 VRB15G30KT -SHRA BKN040
     FM211900 04008KT P6SM VCTS SCT060CB BKN120
     FM220100 18008KT P6SM VCTS SCT050CB BKN080
     FM220600 18007KT P6SM VCSH SCT040 BKN060=

USA.gov is the U.S. government's official web portal to all federal, state and local government web resources and services.